createdAt,value
2023-05-24T00:00:49.776Z,0
2023-05-24T00:01:49.801Z,0
2023-05-24T00:02:49.955Z,0
2023-05-24T00:03:49.954Z,0
2023-05-24T00:04:49.802Z,0
2023-05-24T00:05:49.779Z,0
2023-05-24T00:06:49.781Z,0
2023-05-24T00:07:49.780Z,0
2023-05-24T00:08:49.769Z,0
2023-05-24T00:09:49.767Z,0
2023-05-24T00:10:49.777Z,0
2023-05-24T00:11:49.800Z,0
2023-05-24T00:12:49.781Z,0
2023-05-24T00:13:49.773Z,0
2023-05-24T00:14:49.773Z,0
2023-05-24T00:15:49.782Z,0
2023-05-24T00:16:49.807Z,0
2023-05-24T00:17:49.865Z,0
2023-05-24T00:18:49.777Z,0
2023-05-24T00:19:49.802Z,0
2023-05-24T00:20:49.859Z,0
2023-05-24T00:21:49.779Z,0
2023-05-24T00:22:49.772Z,0
2023-05-24T00:23:49.779Z,0
2023-05-24T00:24:49.779Z,0
2023-05-24T00:25:49.786Z,0
2023-05-24T00:26:49.771Z,0
2023-05-24T00:27:49.777Z,0
2023-05-24T00:28:49.776Z,0
2023-05-24T00:29:49.773Z,0
2023-05-24T00:30:49.779Z,0
2023-05-24T00:31:49.817Z,0
2023-05-24T00:32:49.806Z,0
2023-05-24T00:33:49.788Z,0
2023-05-24T00:34:49.785Z,0
2023-05-24T00:35:49.790Z,0
2023-05-24T00:36:49.786Z,0
2023-05-24T00:37:49.778Z,0
2023-05-24T00:38:49.780Z,0
2023-05-24T00:39:49.784Z,0
2023-05-24T00:40:49.783Z,0
2023-05-24T00:41:49.789Z,0
2023-05-24T00:42:49.778Z,0
2023-05-24T00:43:49.797Z,0
2023-05-24T00:44:49.788Z,0
2023-05-24T00:45:49.820Z,0
2023-05-24T00:46:49.794Z,0
2023-05-24T00:47:49.809Z,0
2023-05-24T00:48:49.804Z,0
2023-05-24T00:49:49.786Z,0
2023-05-24T00:50:49.784Z,0
2023-05-24T00:51:49.781Z,0
2023-05-24T00:52:49.775Z,0
2023-05-24T00:53:49.791Z,0
2023-05-24T00:54:49.800Z,0
2023-05-24T00:55:49.782Z,0
2023-05-24T00:56:49.773Z,0
2023-05-24T00:57:49.787Z,0
2023-05-24T00:58:49.783Z,0
2023-05-24T00:59:49.785Z,0
2023-05-24T01:00:49.815Z,0
2023-05-24T01:01:49.925Z,0
2023-05-24T01:02:49.859Z,0
2023-05-24T01:03:49.872Z,0
2023-05-24T01:04:49.780Z,0
2023-05-24T01:05:49.781Z,0
2023-05-24T01:06:49.782Z,0
2023-05-24T01:07:49.794Z,0
2023-05-24T01:08:49.794Z,0
2023-05-24T01:09:49.779Z,0
2023-05-24T01:10:49.780Z,0
2023-05-24T01:11:49.799Z,0
2023-05-24T01:12:49.802Z,0
2023-05-24T01:13:49.786Z,0
2023-05-24T01:14:49.794Z,0
2023-05-24T01:15:49.822Z,0
2023-05-24T01:16:49.790Z,0
2023-05-24T01:17:49.859Z,0
2023-05-24T01:18:49.788Z,0
2023-05-24T01:19:50.036Z,0
2023-05-24T01:20:49.909Z,0
2023-05-24T01:21:49.785Z,0
2023-05-24T01:22:49.805Z,0
2023-05-24T01:23:49.777Z,0
2023-05-24T01:24:49.786Z,0
2023-05-24T01:25:49.786Z,0
2023-05-24T01:26:49.789Z,0
2023-05-24T01:27:49.771Z,0
2023-05-24T01:28:49.776Z,0
2023-05-24T01:29:49.777Z,0
2023-05-24T01:30:49.792Z,0
2023-05-24T01:31:49.827Z,0
2023-05-24T01:32:49.848Z,0
2023-05-24T01:33:49.781Z,0
2023-05-24T01:34:49.790Z,0
2023-05-24T01:35:49.797Z,0
2023-05-24T01:36:49.793Z,0
2023-05-24T01:37:49.788Z,0
2023-05-24T01:38:49.784Z,0
2023-05-24T01:39:49.776Z,0
2023-05-24T01:40:49.794Z,0
2023-05-24T01:41:49.781Z,0
2023-05-24T01:42:49.788Z,0
2023-05-24T01:43:49.799Z,0
2023-05-24T01:44:49.776Z,0
2023-05-24T01:45:49.794Z,0
2023-05-24T01:46:49.870Z,0
2023-05-24T01:47:49.854Z,0
2023-05-24T01:48:49.788Z,0
2023-05-24T01:49:49.779Z,0
2023-05-24T01:50:49.791Z,0
2023-05-24T01:51:49.815Z,0
2023-05-24T01:52:49.796Z,0
2023-05-24T01:53:49.782Z,0
2023-05-24T01:54:49.788Z,0
2023-05-24T01:55:49.794Z,0
2023-05-24T01:56:49.787Z,0
2023-05-24T01:57:49.792Z,0
2023-05-24T01:58:49.796Z,0
2023-05-24T01:59:49.796Z,0
2023-05-24T02:00:49.814Z,0
2023-05-24T02:01:49.832Z,0
2023-05-24T02:02:49.848Z,0
2023-05-24T02:03:49.779Z,0
2023-05-24T02:04:49.792Z,0
2023-05-24T02:05:49.778Z,0
2023-05-24T02:06:49.785Z,0
2023-05-24T02:07:49.793Z,0
2023-05-24T02:08:49.789Z,0
2023-05-24T02:09:49.776Z,0
2023-05-24T02:10:49.785Z,0
2023-05-24T02:11:49.782Z,0
2023-05-24T02:12:49.794Z,0
2023-05-24T02:13:49.785Z,0
2023-05-24T02:14:49.784Z,0
2023-05-24T02:15:49.805Z,0
2023-05-24T02:16:49.807Z,0
2023-05-24T02:17:49.841Z,0
2023-05-24T02:18:49.784Z,0
2023-05-24T02:19:49.821Z,0
2023-05-24T02:20:49.787Z,0
2023-05-24T02:21:49.785Z,0
2023-05-24T02:22:49.788Z,0
2023-05-24T02:23:49.780Z,0
2023-05-24T02:24:49.783Z,0
2023-05-24T02:25:49.813Z,0
2023-05-24T02:26:49.793Z,0
2023-05-24T02:27:49.799Z,0
2023-05-24T02:28:49.786Z,0
2023-05-24T02:29:49.779Z,0
2023-05-24T02:30:49.830Z,0
2023-05-24T02:31:49.829Z,0
2023-05-24T02:32:49.879Z,0
2023-05-24T02:33:49.786Z,0
2023-05-24T02:34:49.788Z,0
2023-05-24T02:35:49.788Z,0
2023-05-24T02:36:49.789Z,0
2023-05-24T02:37:49.787Z,0
2023-05-24T02:38:49.784Z,0
2023-05-24T02:39:49.786Z,0
2023-05-24T02:40:49.778Z,0
2023-05-24T02:41:49.791Z,0
2023-05-24T02:42:49.790Z,0
2023-05-24T02:43:49.780Z,0
2023-05-24T02:44:49.780Z,0
2023-05-24T02:45:49.830Z,0
2023-05-24T02:46:49.795Z,0
2023-05-24T02:47:49.800Z,0
2023-05-24T02:48:49.815Z,0
2023-05-24T02:49:49.777Z,0
2023-05-24T02:50:49.788Z,0
2023-05-24T02:51:49.778Z,0
2023-05-24T02:52:49.788Z,0
2023-05-24T02:53:49.778Z,0
2023-05-24T02:54:49.781Z,0
2023-05-24T02:55:49.786Z,0
2023-05-24T02:56:49.772Z,0
2023-05-24T02:57:49.782Z,0.01
2023-05-24T02:58:49.787Z,0.01
2023-05-24T02:59:49.800Z,0.01
2023-05-24T03:00:49.794Z,0.01
2023-05-24T03:01:49.826Z,0.01
2023-05-24T03:02:49.860Z,0.01
2023-05-24T03:03:49.857Z,0.01
2023-05-24T03:04:49.785Z,0.01
2023-05-24T03:05:49.784Z,0.01
2023-05-24T03:06:49.782Z,0.01
2023-05-24T03:07:49.777Z,0.01
2023-05-24T03:08:49.814Z,0.01
2023-05-24T03:09:49.793Z,0.02
2023-05-24T03:10:49.792Z,0.02
2023-05-24T03:11:49.789Z,0.02
2023-05-24T03:12:49.783Z,0.02
2023-05-24T03:13:49.799Z,0.02
2023-05-24T03:14:49.788Z,0.02
2023-05-24T03:15:49.858Z,0.02
2023-05-24T03:16:49.783Z,0.02
2023-05-24T03:17:49.811Z,0.02
2023-05-24T03:18:49.785Z,0.03
2023-05-24T03:19:49.812Z,0.03
2023-05-24T03:20:49.789Z,0.03
2023-05-24T03:21:49.784Z,0.03
2023-05-24T03:22:49.784Z,0.03
2023-05-24T03:23:49.786Z,0.03
2023-05-24T03:24:49.795Z,0.03
2023-05-24T03:25:49.793Z,0.03
2023-05-24T03:26:49.775Z,0.03
2023-05-24T03:27:49.779Z,0.03
2023-05-24T03:28:49.799Z,0.04
2023-05-24T03:29:49.788Z,0.04
2023-05-24T03:30:49.787Z,0.04
2023-05-24T03:31:49.848Z,0.04
2023-05-24T03:32:49.808Z,0.04
2023-05-24T03:33:49.776Z,0.04
2023-05-24T03:34:49.792Z,0.05
2023-05-24T03:35:49.789Z,0.05
2023-05-24T03:36:49.815Z,0.05
2023-05-24T03:37:49.792Z,0.05
2023-05-24T03:38:49.791Z,0.06
2023-05-24T03:39:49.792Z,0.06
2023-05-24T03:40:49.788Z,0.06
2023-05-24T03:41:49.781Z,0.07
2023-05-24T03:42:49.797Z,0.07
2023-05-24T03:43:49.794Z,0.07
2023-05-24T03:45:45.449Z,0.09
2023-05-24T03:46:44.406Z,0.1
2023-05-24T03:47:44.445Z,0.1
2023-05-24T03:48:44.401Z,0.1
2023-05-24T03:49:44.391Z,0.11
2023-05-24T03:50:44.617Z,0.11
2023-05-24T03:51:44.400Z,0.11
2023-05-24T03:52:44.392Z,0.11
2023-05-24T03:53:44.372Z,0.11
2023-05-24T03:54:44.398Z,0.12
2023-05-24T03:55:44.389Z,0.12
2023-05-24T03:56:44.396Z,0.13
2023-05-24T03:57:44.394Z,0.14
2023-05-24T03:58:44.401Z,0.15
2023-05-24T03:59:44.412Z,0.16
2023-05-24T04:00:44.542Z,0.18
2023-05-24T04:01:44.398Z,0.19
2023-05-24T04:02:44.521Z,0.2
2023-05-24T04:03:44.519Z,0.2
2023-05-24T04:04:44.377Z,0.21
2023-05-24T04:05:44.397Z,0.2
2023-05-24T04:06:44.384Z,0.2
2023-05-24T04:07:44.388Z,0.21
2023-05-24T04:08:44.385Z,0.22
2023-05-24T04:09:44.419Z,0.23
2023-05-24T04:10:44.626Z,0.24
2023-05-24T04:11:44.387Z,0.24
2023-05-24T04:12:44.378Z,0.25
2023-05-24T04:13:44.386Z,0.25
2023-05-24T04:14:44.393Z,0.25
2023-05-24T04:15:44.391Z,0.25
2023-05-24T04:16:44.465Z,0.24
2023-05-24T04:17:44.606Z,0.21
2023-05-24T04:18:44.492Z,0.22
2023-05-24T04:19:44.431Z,0.22
2023-05-24T04:20:44.662Z,0.2
2023-05-24T04:21:44.384Z,0.2
2023-05-24T04:22:44.379Z,0.21
2023-05-24T04:23:44.392Z,0.24
2023-05-24T04:24:44.428Z,0.27
2023-05-24T04:25:44.387Z,0.27
2023-05-24T04:26:44.392Z,0.26
2023-05-24T04:27:44.385Z,0.25
2023-05-24T04:28:44.394Z,0.28
2023-05-24T04:29:44.387Z,0.3
2023-05-24T04:30:44.474Z,0.32
2023-05-24T04:31:44.486Z,0.34
2023-05-24T04:32:44.443Z,0.37
2023-05-24T04:33:44.397Z,0.41
2023-05-24T04:34:44.385Z,0.44
2023-05-24T04:35:44.377Z,0.45
2023-05-24T04:36:44.382Z,0.47
2023-05-24T04:37:44.394Z,0.48
2023-05-24T04:38:44.393Z,0.49
2023-05-24T04:39:44.395Z,0.5
2023-05-24T04:40:44.616Z,0.49
2023-05-24T04:41:44.375Z,0.5
2023-05-24T04:42:44.391Z,0.51
2023-05-24T04:43:44.396Z,0.51
2023-05-24T04:44:44.372Z,0.53
2023-05-24T04:45:44.394Z,0.54
2023-05-24T04:46:44.426Z,0.53
2023-05-24T04:47:44.429Z,0.53
2023-05-24T04:48:44.388Z,0.54
2023-05-24T04:49:44.380Z,0.52
2023-05-24T04:50:44.551Z,0.51
2023-05-24T04:51:44.367Z,0.5
2023-05-24T04:52:44.388Z,0.53
2023-05-24T04:53:44.370Z,0.52
2023-05-24T04:54:44.377Z,0.49
2023-05-24T04:55:44.389Z,0.44
2023-05-24T04:56:44.393Z,0.45
2023-05-24T04:57:44.388Z,0.43
2023-05-24T04:58:44.395Z,0.43
2023-05-24T04:59:44.379Z,0.43
2023-05-24T05:00:44.442Z,0.45
2023-05-24T05:01:44.412Z,0.47
2023-05-24T05:02:44.444Z,0.52
2023-05-24T05:03:44.469Z,0.54
2023-05-24T05:04:44.381Z,0.5
2023-05-24T05:05:44.385Z,0.48
2023-05-24T05:06:44.379Z,0.49
2023-05-24T05:07:44.388Z,0.48
2023-05-24T05:08:44.401Z,0.46
2023-05-24T05:09:44.385Z,0.44
2023-05-24T05:10:44.501Z,0.47
2023-05-24T05:11:44.382Z,0.51
2023-05-24T05:12:44.383Z,0.57
2023-05-24T05:13:44.385Z,0.59
2023-05-24T05:14:44.398Z,0.58
2023-05-24T05:15:44.396Z,0.58
2023-05-24T05:16:44.401Z,0.62
2023-05-24T05:17:44.413Z,0.66
2023-05-24T05:18:44.371Z,0.65
2023-05-24T05:19:44.381Z,0.65
2023-05-24T05:20:44.757Z,0.61
2023-05-24T05:21:44.380Z,0.62
2023-05-24T05:22:44.365Z,0.66
2023-05-24T05:23:44.375Z,0.71
2023-05-24T05:24:44.389Z,0.7
2023-05-24T05:25:44.387Z,0.73
2023-05-24T05:26:44.380Z,0.75
2023-05-24T05:27:44.385Z,0.76
2023-05-24T05:28:44.387Z,0.78
2023-05-24T05:29:44.404Z,0.79
2023-05-24T05:30:44.538Z,0.79
2023-05-24T05:31:44.385Z,0.8
2023-05-24T05:32:44.454Z,0.82
2023-05-24T05:33:44.370Z,0.83
2023-05-24T05:34:44.379Z,0.88
2023-05-24T05:35:44.369Z,0.93
2023-05-24T05:36:44.396Z,0.97
2023-05-24T05:37:44.384Z,1.01
2023-05-24T05:38:44.386Z,1.01
2023-05-24T05:39:44.383Z,1.03
2023-05-24T05:40:44.513Z,1.02
2023-05-24T05:41:45.954Z,1.11
2023-05-24T05:42:44.398Z,1.21
2023-05-24T05:43:44.389Z,1.25
2023-05-24T05:44:44.390Z,1.31
2023-05-24T05:45:44.402Z,1.33
2023-05-24T05:46:44.388Z,1.37
2023-05-24T05:47:44.434Z,1.39
2023-05-24T05:48:46.313Z,1.43
2023-05-24T05:49:44.383Z,1.48
2023-05-24T05:50:44.501Z,1.48
2023-05-24T05:51:44.390Z,1.49
2023-05-24T05:52:44.394Z,1.54
2023-05-24T05:53:44.394Z,1.55
2023-05-24T05:54:44.384Z,1.54
2023-05-24T05:55:44.376Z,1.41
2023-05-24T05:56:44.379Z,1.34
2023-05-24T05:57:44.392Z,1.36
2023-05-24T05:58:44.377Z,1.22
2023-05-24T05:59:44.379Z,1.15
2023-05-24T06:00:44.597Z,1.15
2023-05-24T06:01:44.402Z,1.17
2023-05-24T06:02:44.475Z,1.14
2023-05-24T06:03:44.501Z,1.15
2023-05-24T06:04:44.387Z,1.16
2023-05-24T06:05:44.380Z,1.17
2023-05-24T06:06:44.370Z,1.21
2023-05-24T06:07:44.387Z,1.2
2023-05-24T06:08:44.377Z,1.25
2023-05-24T06:09:44.401Z,1.22
2023-05-24T06:10:44.520Z,1.18
2023-05-24T06:11:44.387Z,1.13
2023-05-24T06:12:44.385Z,1.06
2023-05-24T06:13:44.388Z,1.06
2023-05-24T06:14:44.375Z,1.15
2023-05-24T06:15:44.408Z,1.19
2023-05-24T06:16:44.491Z,1.15
2023-05-24T06:17:44.448Z,1.09
2023-05-24T06:18:53.399Z,1.13
2023-05-24T06:19:44.372Z,1.22
2023-05-24T06:20:44.614Z,1.31
2023-05-24T06:21:44.381Z,1.45
2023-05-24T06:22:44.370Z,1.49
2023-05-24T06:23:44.373Z,1.46
2023-05-24T06:24:44.367Z,1.43
2023-05-24T06:25:44.382Z,1.39
2023-05-24T06:26:44.386Z,1.4
2023-05-24T06:27:44.370Z,1.39
2023-05-24T06:28:44.380Z,1.37
2023-05-24T06:29:44.404Z,1.39
2023-05-24T06:30:44.806Z,1.41
2023-05-24T06:31:44.427Z,1.33
2023-05-24T06:32:44.431Z,1.26
2023-05-24T06:33:52.510Z,1.3
2023-05-24T06:34:44.381Z,1.35
2023-05-24T06:35:44.384Z,1.38
2023-05-24T06:36:44.374Z,1.46
2023-05-24T06:37:44.380Z,1.54
2023-05-24T06:38:44.381Z,1.66
2023-05-24T06:39:44.411Z,1.6
2023-05-24T06:40:44.554Z,1.52
2023-05-24T06:41:44.394Z,1.56
2023-05-24T06:42:44.400Z,1.61
2023-05-24T06:43:44.379Z,1.52
2023-05-24T06:44:44.397Z,1.48
2023-05-24T06:45:44.385Z,1.56
2023-05-24T06:46:44.433Z,1.6
2023-05-24T06:47:44.447Z,1.7
2023-05-24T06:48:44.475Z,1.73
2023-05-24T06:49:44.368Z,1.74
2023-05-24T06:50:44.550Z,1.64
2023-05-24T06:51:44.956Z,1.6
2023-05-24T06:52:44.387Z,1.64
2023-05-24T06:53:44.389Z,1.72
2023-05-24T06:54:44.390Z,1.86
2023-05-24T06:55:44.372Z,1.91
2023-05-24T06:56:44.372Z,1.91
2023-05-24T06:57:44.385Z,2.01
2023-05-24T06:58:44.397Z,1.96
2023-05-24T06:59:44.381Z,1.98
2023-05-24T07:00:44.804Z,1.86
2023-05-24T07:01:44.444Z,1.74
2023-05-24T07:02:44.467Z,1.77
2023-05-24T07:03:44.385Z,1.95
2023-05-24T07:04:44.472Z,2.3
2023-05-24T07:05:44.380Z,2.24
2023-05-24T07:06:44.402Z,2.03
2023-05-24T07:07:44.396Z,2.07
2023-05-24T07:08:44.393Z,2.09
2023-05-24T07:09:44.392Z,2.12
2023-05-24T07:10:44.633Z,3.47
2023-05-24T07:11:44.393Z,3.47
2023-05-24T07:12:44.375Z,4.15
2023-05-24T07:13:44.382Z,4.22
2023-05-24T07:14:44.398Z,3.11
2023-05-24T07:15:44.384Z,2.2
2023-05-24T07:16:44.397Z,4.47
2023-05-24T07:17:44.470Z,2.3
2023-05-24T07:18:44.365Z,2.21
2023-05-24T07:19:44.378Z,4.24
2023-05-24T07:20:44.788Z,4.92
2023-05-24T07:21:44.382Z,5.22
2023-05-24T07:22:44.381Z,5.34
2023-05-24T07:23:44.382Z,2.54
2023-05-24T07:24:44.391Z,2.16
2023-05-24T07:25:44.366Z,2.1
2023-05-24T07:26:44.390Z,2.18
2023-05-24T07:27:44.383Z,2.16
2023-05-24T07:28:44.382Z,2.14
2023-05-24T07:29:46.900Z,2.13
2023-05-24T07:30:44.382Z,2.15
2023-05-24T07:31:44.416Z,2.11
2023-05-24T07:32:44.511Z,2.11
2023-05-24T07:33:44.400Z,2.63
2023-05-24T07:34:44.374Z,2.63
2023-05-24T07:35:44.384Z,2.59
2023-05-24T07:36:44.379Z,4.84
2023-05-24T07:37:44.374Z,2.68
2023-05-24T07:38:44.377Z,2.03
2023-05-24T07:39:44.375Z,1.88
2023-05-24T07:40:44.558Z,1.9
2023-05-24T07:41:44.384Z,2.08
2023-05-24T07:42:44.375Z,2.29
2023-05-24T07:43:44.379Z,2.94
2023-05-24T07:44:44.383Z,2.23
2023-05-24T07:45:44.605Z,1.93
2023-05-24T07:46:44.406Z,1.8
2023-05-24T07:47:44.421Z,1.72
2023-05-24T07:48:44.376Z,1.68
2023-05-24T07:49:44.389Z,1.7
2023-05-24T07:50:44.498Z,1.76
2023-05-24T07:51:44.373Z,1.96
2023-05-24T07:52:44.377Z,2.36
2023-05-24T07:53:44.381Z,2.08
2023-05-24T07:54:44.387Z,3.48
2023-05-24T07:55:44.574Z,2.51
2023-05-24T07:56:44.378Z,2.78
2023-05-24T07:57:44.380Z,2.46
2023-05-24T07:58:44.386Z,3.82
2023-05-24T07:59:44.375Z,2.42
2023-05-24T08:00:44.388Z,2.38
2023-05-24T08:01:44.395Z,2.2
2023-05-24T08:02:44.497Z,2.08
2023-05-24T08:03:44.509Z,2.04
2023-05-24T08:04:44.375Z,2.11
2023-05-24T08:05:44.715Z,2.05
2023-05-24T08:06:44.464Z,2
2023-05-24T08:07:44.373Z,1.86
2023-05-24T08:08:44.385Z,1.74
2023-05-24T08:09:44.381Z,1.71
2023-05-24T08:10:44.393Z,1.74
2023-05-24T08:11:44.381Z,1.85
2023-05-24T08:12:44.386Z,2.09
2023-05-24T08:13:44.378Z,2.98
2023-05-24T08:14:44.434Z,2.31
2023-05-24T08:15:44.574Z,2.03
2023-05-24T08:16:44.536Z,1.74
2023-05-24T08:17:44.459Z,1.72
2023-05-24T08:18:44.379Z,1.71
2023-05-24T08:19:44.375Z,1.62
2023-05-24T08:20:44.415Z,1.59
2023-05-24T08:21:44.394Z,1.67
2023-05-24T08:22:44.385Z,1.86
2023-05-24T08:23:44.382Z,1.83
2023-05-24T08:24:44.379Z,1.77
2023-05-24T08:25:44.595Z,1.99
2023-05-24T08:26:44.386Z,1.82
2023-05-24T08:27:44.400Z,1.64
2023-05-24T08:28:44.370Z,1.55
2023-05-24T08:29:44.367Z,1.52
2023-05-24T08:30:44.394Z,1.48
2023-05-24T08:31:44.445Z,1.46
2023-05-24T08:32:44.427Z,1.49
2023-05-24T08:33:44.383Z,1.61
2023-05-24T08:34:44.382Z,1.79
2023-05-24T08:35:44.581Z,1.94
2023-05-24T08:36:44.377Z,2.15
2023-05-24T08:37:44.370Z,2.17
2023-05-24T08:38:44.377Z,2.13
2023-05-24T08:39:44.373Z,1.79
2023-05-24T08:40:44.395Z,1.73
2023-05-24T08:41:47.520Z,1.73
2023-05-24T08:42:44.385Z,1.74
2023-05-24T08:43:44.400Z,1.82
2023-05-24T08:44:44.383Z,1.62
2023-05-24T08:45:44.977Z,1.49
2023-05-24T08:46:44.428Z,1.42
2023-05-24T08:47:44.446Z,1.44
2023-05-24T08:48:44.400Z,1.43
2023-05-24T08:49:44.385Z,1.4
2023-05-24T08:50:44.375Z,1.37
2023-05-24T08:51:44.371Z,1.36
2023-05-24T08:52:44.375Z,1.4
2023-05-24T08:53:44.372Z,1.43
2023-05-24T08:54:44.388Z,1.44
2023-05-24T08:55:44.603Z,1.47
2023-05-24T08:56:44.374Z,1.5
2023-05-24T08:57:44.381Z,1.58
2023-05-24T08:58:44.376Z,1.58
2023-05-24T08:59:44.400Z,1.91
2023-05-24T09:00:44.389Z,2.23
2023-05-24T09:01:44.468Z,2.61
2023-05-24T09:02:44.468Z,3.14
2023-05-24T09:03:44.422Z,2.86
2023-05-24T09:04:44.498Z,2.86
2023-05-24T09:05:44.531Z,3.13
2023-05-24T09:06:44.384Z,2.92
2023-05-24T09:07:44.382Z,2.9
2023-05-24T09:08:44.389Z,2.87
2023-05-24T09:09:44.383Z,2.75
2023-05-24T09:10:53.923Z,2.62
2023-05-24T09:11:44.377Z,2.51
2023-05-24T09:12:44.393Z,2.4
2023-05-24T09:13:44.394Z,2.29
2023-05-24T09:14:44.377Z,2.2
2023-05-24T09:15:44.612Z,2.14
2023-05-24T09:16:44.432Z,2.13
2023-05-24T09:17:44.400Z,2.14
2023-05-24T09:18:44.377Z,2.14
2023-05-24T09:19:44.364Z,2.11
2023-05-24T09:20:44.688Z,2.03
2023-05-24T09:21:44.373Z,1.95
2023-05-24T09:22:44.387Z,1.9
2023-05-24T09:23:44.390Z,1.87
2023-05-24T09:24:44.382Z,1.87
2023-05-24T09:25:44.382Z,1.91
2023-05-24T09:26:44.367Z,1.96
2023-05-24T09:27:46.133Z,1.97
2023-05-24T09:28:44.378Z,2.01
2023-05-24T09:29:44.377Z,2.12
2023-05-24T09:30:44.603Z,2.31
2023-05-24T09:31:44.428Z,2.31
2023-05-24T09:32:44.495Z,2.83
2023-05-24T09:33:44.377Z,3.39
2023-05-24T09:34:44.370Z,4.01
2023-05-24T09:35:44.384Z,4.83
2023-05-24T09:36:44.375Z,4.84
2023-05-24T09:37:44.392Z,4.52
2023-05-24T09:38:44.375Z,5.5
2023-05-24T09:39:44.375Z,5.29
2023-05-24T09:40:44.463Z,4.71
2023-05-24T09:41:44.390Z,4.51
2023-05-24T09:42:44.388Z,4.41
2023-05-24T09:43:44.373Z,4.66
2023-05-24T09:44:44.380Z,3.75
2023-05-24T09:45:44.419Z,3.41
2023-05-24T09:46:44.415Z,3.23
2023-05-24T09:47:44.438Z,3.08
2023-05-24T09:48:44.377Z,2.93
2023-05-24T09:49:45.533Z,2.83
2023-05-24T09:50:44.642Z,2.84
2023-05-24T09:51:44.433Z,3.14
2023-05-24T09:52:44.387Z,3.86
2023-05-24T09:53:44.376Z,3.42
2023-05-24T09:54:44.384Z,3.04
2023-05-24T09:55:44.380Z,3.27
2023-05-24T09:56:44.386Z,2.43
2023-05-24T09:57:44.391Z,2.23
2023-05-24T09:58:44.379Z,2.16
2023-05-24T09:59:44.387Z,2.21
2023-05-24T10:00:44.607Z,2.41
2023-05-24T10:01:44.437Z,2.75
2023-05-24T10:02:52.340Z,3.17
2023-05-24T10:03:44.434Z,3.43
2023-05-24T10:04:44.423Z,3.62
2023-05-24T10:05:44.396Z,4.98
2023-05-24T10:06:44.386Z,5.34
2023-05-24T10:07:44.379Z,7.35
2023-05-24T10:08:44.390Z,9.52
2023-05-24T10:09:44.401Z,11.35
2023-05-24T10:10:44.841Z,7.53
2023-05-24T10:11:44.389Z,4.63
2023-05-24T10:12:44.373Z,4.86
2023-05-24T10:13:44.377Z,8.5
2023-05-24T10:14:44.389Z,4.88
2023-05-24T10:15:44.377Z,5.17
2023-05-24T10:16:44.438Z,8.31
2023-05-24T10:17:44.522Z,4.27
2023-05-24T10:18:44.371Z,3.94
2023-05-24T10:19:44.398Z,4.62
2023-05-24T10:20:45.041Z,8.82
2023-05-24T10:21:44.407Z,9.93
2023-05-24T10:22:44.387Z,11.21
2023-05-24T10:23:44.393Z,12.07
2023-05-24T10:24:44.388Z,12.15
2023-05-24T10:25:44.381Z,4.66
2023-05-24T10:26:44.378Z,3.92
2023-05-24T10:27:44.379Z,3.54
2023-05-24T10:28:44.391Z,3.26
2023-05-24T10:29:44.389Z,3.23
2023-05-24T10:30:44.615Z,3.19
2023-05-24T10:31:44.450Z,3.46
2023-05-24T10:32:44.461Z,3.83
2023-05-24T10:33:44.399Z,4.87
2023-05-24T10:34:44.388Z,4.87
2023-05-24T10:35:44.365Z,5.16
2023-05-24T10:36:44.379Z,4.05
2023-05-24T10:37:44.391Z,3.6
2023-05-24T10:38:44.376Z,3.52
2023-05-24T10:39:44.373Z,3.36
2023-05-24T10:40:44.384Z,3.11
2023-05-24T10:41:44.376Z,2.84
2023-05-24T10:42:44.379Z,2.62
2023-05-24T10:43:50.577Z,2.51
2023-05-24T10:44:44.397Z,2.39
2023-05-24T10:45:44.375Z,2.26
2023-05-24T10:46:44.458Z,2.16
2023-05-24T10:47:44.415Z,2.15
2023-05-24T10:48:44.377Z,2.23
2023-05-24T10:49:44.376Z,2.32
2023-05-24T10:50:44.828Z,2.59
2023-05-24T10:51:44.378Z,3.04
2023-05-24T10:52:44.391Z,3.22
2023-05-24T10:53:44.372Z,3.56
2023-05-24T10:54:55.949Z,2.93
2023-05-24T10:55:44.377Z,2.6
2023-05-24T10:56:44.402Z,2.4
2023-05-24T10:57:44.411Z,2.24
2023-05-24T10:58:44.371Z,2.1
2023-05-24T10:59:44.383Z,1.98
2023-05-24T11:00:44.390Z,1.86
2023-05-24T11:01:44.431Z,1.77
2023-05-24T11:02:44.446Z,1.69
2023-05-24T11:03:44.390Z,1.66
2023-05-24T11:04:44.370Z,1.66
2023-05-24T11:05:46.500Z,1.66
2023-05-24T11:06:44.383Z,1.69
2023-05-24T11:07:44.381Z,1.71
2023-05-24T11:08:44.377Z,1.76
2023-05-24T11:09:44.384Z,1.86
2023-05-24T11:10:44.775Z,1.94
2023-05-24T11:11:44.445Z,1.91
2023-05-24T11:12:44.383Z,1.88
2023-05-24T11:13:44.376Z,1.92
2023-05-24T11:14:44.373Z,2.04
2023-05-24T11:15:44.397Z,1.86
2023-05-24T11:16:44.483Z,1.81
2023-05-24T11:17:44.441Z,1.78
2023-05-24T11:18:44.383Z,1.74
2023-05-24T11:19:44.391Z,1.72
2023-05-24T11:20:44.720Z,1.72
2023-05-24T11:21:44.464Z,1.73
2023-05-24T11:22:44.382Z,1.7
2023-05-24T11:23:44.398Z,1.71
2023-05-24T11:24:44.395Z,1.72
2023-05-24T11:25:44.381Z,1.76
2023-05-24T11:26:44.376Z,1.82
2023-05-24T11:27:44.383Z,1.86
2023-05-24T11:28:44.394Z,1.93
2023-05-24T11:29:44.383Z,2.09
2023-05-24T11:30:44.702Z,2.17
2023-05-24T11:31:44.894Z,2.12
2023-05-24T11:32:44.440Z,2.05
2023-05-24T11:33:44.399Z,2.02
2023-05-24T11:34:44.400Z,2.02
2023-05-24T11:35:44.381Z,1.98
2023-05-24T11:36:44.366Z,1.88
2023-05-24T11:37:46.640Z,1.83
2023-05-24T11:38:44.400Z,1.85
2023-05-24T11:39:44.390Z,1.96
2023-05-24T11:40:44.520Z,2.12
2023-05-24T11:41:44.475Z,2.23
2023-05-24T11:42:44.388Z,2.23
2023-05-24T11:43:44.381Z,2.2
2023-05-24T11:44:44.378Z,2.17
2023-05-24T11:45:44.417Z,2.18
2023-05-24T11:46:44.403Z,2.15
2023-05-24T11:47:44.425Z,2.18
2023-05-24T11:48:44.381Z,2.27
2023-05-24T11:49:44.393Z,2.34
2023-05-24T11:51:44.415Z,2.47
2023-05-24T11:52:44.387Z,2.45
2023-05-24T11:53:44.382Z,2.37
2023-05-24T11:54:44.384Z,2.26
2023-05-24T11:55:44.494Z,2.1
2023-05-24T11:56:44.382Z,2.06
2023-05-24T11:57:44.390Z,1.94
2023-05-24T11:58:44.399Z,1.84
2023-05-24T11:59:44.382Z,1.75
2023-05-24T12:00:44.528Z,1.73
2023-05-24T12:01:44.391Z,1.74
2023-05-24T12:02:44.525Z,1.75
2023-05-24T12:03:44.674Z,1.74
2023-05-24T12:04:44.402Z,1.74
2023-05-24T12:05:44.368Z,1.74
2023-05-24T12:06:44.428Z,1.89
2023-05-24T12:07:44.403Z,1.99
2023-05-24T12:08:44.385Z,2.09
2023-05-24T12:09:44.377Z,2.25
2023-05-24T12:10:44.625Z,2.28
2023-05-24T12:11:44.401Z,2.31
2023-05-24T12:12:46.281Z,2.42
2023-05-24T12:13:44.374Z,2.62
2023-05-24T12:14:44.372Z,2.7
2023-05-24T12:15:44.423Z,2.98
2023-05-24T12:16:44.398Z,3.34
2023-05-24T12:17:44.458Z,3.74
2023-05-24T12:18:55.114Z,5.55
2023-05-24T12:19:44.378Z,5.55
2023-05-24T12:20:44.811Z,3.88
2023-05-24T12:21:44.391Z,3.63
2023-05-24T12:22:44.372Z,3.11
2023-05-24T12:23:44.389Z,2.97
2023-05-24T12:24:44.425Z,2.95
2023-05-24T12:25:44.391Z,3.01
2023-05-24T12:26:44.375Z,3.18
2023-05-24T12:27:44.380Z,3.1
2023-05-24T12:28:44.383Z,3.06
2023-05-24T12:29:44.382Z,2.88
2023-05-24T12:30:44.545Z,2.63
2023-05-24T12:31:44.547Z,2.49
2023-05-24T12:32:44.434Z,2.48
2023-05-24T12:33:44.372Z,2.51
2023-05-24T12:34:44.693Z,2.6
2023-05-24T12:35:44.381Z,2.75
2023-05-24T12:36:44.372Z,3.04
2023-05-24T12:37:44.372Z,3.36
2023-05-24T12:38:44.376Z,3.64
2023-05-24T12:39:45.127Z,5.98
2023-05-24T12:40:44.690Z,4.87
2023-05-24T12:41:44.379Z,5.23
2023-05-24T12:42:44.371Z,4.24
2023-05-24T12:43:44.506Z,3.47
2023-05-24T12:44:44.381Z,3.55
2023-05-24T12:45:44.392Z,3.26
2023-05-24T12:46:44.434Z,2.92
2023-05-24T12:47:44.447Z,2.68
2023-05-24T12:48:44.374Z,2.55
2023-05-24T12:49:44.378Z,2.48
2023-05-24T12:50:44.555Z,2.44
2023-05-24T12:51:45.302Z,2.49
2023-05-24T12:52:44.384Z,2.75
2023-05-24T12:53:44.399Z,3.96
2023-05-24T12:54:44.386Z,3.68
2023-05-24T12:55:44.369Z,3.27
2023-05-24T12:56:44.380Z,3.24
2023-05-24T12:57:44.371Z,4.27
2023-05-24T12:58:44.387Z,4.36
2023-05-24T12:59:44.382Z,2.96
2023-05-24T13:00:44.683Z,2.71
2023-05-24T13:01:44.511Z,2.57
2023-05-24T13:02:44.517Z,2.5
2023-05-24T13:03:44.387Z,2.36
2023-05-24T13:04:44.381Z,2.5
2023-05-24T13:05:44.495Z,2.5
2023-05-24T13:06:44.382Z,2.71
2023-05-24T13:07:44.381Z,2.65
2023-05-24T13:08:44.388Z,2.43
2023-05-24T13:09:44.372Z,2.31
2023-05-24T13:10:44.663Z,2.24
2023-05-24T13:11:44.377Z,2.2
2023-05-24T13:12:44.388Z,2.11
2023-05-24T13:13:44.400Z,2.01
2023-05-24T13:14:44.382Z,1.99
2023-05-24T13:15:44.387Z,2.06
2023-05-24T13:16:44.783Z,2.28
2023-05-24T13:17:44.468Z,2.54
2023-05-24T13:18:44.388Z,2.74
2023-05-24T13:19:44.373Z,2.88
2023-05-24T13:20:44.721Z,3.06
2023-05-24T13:21:44.417Z,3.08
2023-05-24T13:22:44.398Z,3.17
2023-05-24T13:23:44.385Z,3.24
2023-05-24T13:24:44.386Z,2.74
2023-05-24T13:25:44.386Z,2.7
2023-05-24T13:26:44.389Z,2.54
2023-05-24T13:27:44.424Z,2.35
2023-05-24T13:29:04.959Z,2.17
2023-05-24T13:29:59.219Z,2.08
2023-05-24T13:30:44.696Z,2.02
2023-05-24T13:31:44.910Z,2
2023-05-24T13:32:44.482Z,1.98
2023-05-24T13:33:44.385Z,1.91
2023-05-24T13:34:44.387Z,1.85
2023-05-24T13:35:44.598Z,1.92
2023-05-24T13:36:44.388Z,1.99
2023-05-24T13:37:44.396Z,2.03
2023-05-24T13:38:44.396Z,2.14
2023-05-24T13:39:44.372Z,2.26
2023-05-24T13:40:44.580Z,2.34